sensor_id;sensor_type;location;lat;lon;timestamp;pressure;altitude;pressure_sealevel;temperature;humidity
59939;BME280;45801;51.810;19.444;2023-04-07T00:01:04;99111.17;;;2.99;77.52
59939;BME280;45801;51.810;19.444;2023-04-07T00:03:31;99108.55;;;3.01;77.05
59939;BME280;45801;51.810;19.444;2023-04-07T00:05:57;99111.56;;;2.95;77.66
59939;BME280;45801;51.810;19.444;2023-04-07T00:08:24;99108.27;;;2.95;77.47
59939;BME280;45801;51.810;19.444;2023-04-07T00:10:50;99102.78;;;3.03;76.32
59939;BME280;45801;51.810;19.444;2023-04-07T00:13:17;99101.67;;;3.07;76.43
59939;BME280;45801;51.810;19.444;2023-04-07T00:15:43;99104.55;;;3.09;76.40
59939;BME280;45801;51.810;19.444;2023-04-07T00:18:10;99100.38;;;3.08;76.75
59939;BME280;45801;51.810;19.444;2023-04-07T00:20:36;99096.83;;;3.07;76.77
59939;BME280;45801;51.810;19.444;2023-04-07T00:23:03;99097.36;;;3.05;76.44
59939;BME280;45801;51.810;19.444;2023-04-07T00:25:29;99095.81;;;3.07;76.23
59939;BME280;45801;51.810;19.444;2023-04-07T00:27:55;99095.33;;;3.05;76.90
59939;BME280;45801;51.810;19.444;2023-04-07T00:30:22;99096.66;;;3.00;77.54
59939;BME280;45801;51.810;19.444;2023-04-07T00:32:49;99094.33;;;3.01;77.17
59939;BME280;45801;51.810;19.444;2023-04-07T00:35:16;99092.95;;;2.96;77.53
59939;BME280;45801;51.810;19.444;2023-04-07T00:37:43;99090.39;;;2.91;77.38
59939;BME280;45801;51.810;19.444;2023-04-07T00:40:10;99089.34;;;2.87;77.76
59939;BME280;45801;51.810;19.444;2023-04-07T00:42:36;99088.98;;;2.91;77.39
59939;BME280;45801;51.810;19.444;2023-04-07T00:45:03;99088.13;;;2.94;77.66
59939;BME280;45801;51.810;19.444;2023-04-07T00:47:30;99087.06;;;2.96;77.72
59939;BME280;45801;51.810;19.444;2023-04-07T00:50:05;99083.05;;;3.06;76.90
59939;BME280;45801;51.810;19.444;2023-04-07T00:52:32;99076.29;;;3.15;76.79
59939;BME280;45801;51.810;19.444;2023-04-07T00:54:59;99070.27;;;3.18;76.72
59939;BME280;45801;51.810;19.444;2023-04-07T00:57:26;99069.06;;;3.13;77.26
59939;BME280;45801;51.810;19.444;2023-04-07T00:59:53;99067.40;;;3.16;76.74
59939;BME280;45801;51.810;19.444;2023-04-07T01:02:56;99066.13;;;3.23;76.32
59939;BME280;45801;51.810;19.444;2023-04-07T01:05:38;99064.44;;;3.29;76.28
59939;BME280;45801;51.810;19.444;2023-04-07T01:08:16;99061.71;;;3.34;76.11
59939;BME280;45801;51.810;19.444;2023-04-07T01:10:59;99059.80;;;3.35;76.23
59939;BME280;45801;51.810;19.444;2023-04-07T01:16:04;99060.58;;;3.33;75.87
59939;BME280;45801;51.810;19.444;2023-04-07T01:18:34;99056.88;;;3.40;75.45
59939;BME280;45801;51.810;19.444;2023-04-07T01:21:13;99056.73;;;3.43;75.79
59939;BME280;45801;51.810;19.444;2023-04-07T01:25:21;99054.55;;;3.49;75.68
59939;BME280;45801;51.810;19.444;2023-04-07T01:26:50;99053.73;;;3.52;75.69
59939;BME280;45801;51.810;19.444;2023-04-07T01:29:27;99055.35;;;3.53;75.61
59939;BME280;45801;51.810;19.444;2023-04-07T01:31:59;99052.30;;;3.54;75.50
59939;BME280;45801;51.810;19.444;2023-04-07T01:34:29;99054.45;;;3.53;75.68
59939;BME280;45801;51.810;19.444;2023-04-07T01:36:57;99049.63;;;3.48;75.94
59939;BME280;45801;51.810;19.444;2023-04-07T01:39:26;99047.98;;;3.41;76.18
59939;BME280;45801;51.810;19.444;2023-04-07T01:41:54;99050.28;;;3.37;76.19
59939;BME280;45801;51.810;19.444;2023-04-07T01:44:21;99049.65;;;3.36;76.47
59939;BME280;45801;51.810;19.444;2023-04-07T01:46:49;99047.45;;;3.31;76.73
59939;BME280;45801;51.810;19.444;2023-04-07T01:49:16;99045.81;;;3.25;76.67
59939;BME280;45801;51.810;19.444;2023-04-07T01:51:44;99045.94;;;3.27;76.87
59939;BME280;45801;51.810;19.444;2023-04-07T01:54:16;99042.52;;;3.25;77.25
59939;BME280;45801;51.810;19.444;2023-04-07T01:56:44;99043.01;;;3.25;77.31
59939;BME280;45801;51.810;19.444;2023-04-07T01:59:11;99043.36;;;3.22;77.54
59939;BME280;45801;51.810;19.444;2023-04-07T02:01:38;99041.02;;;3.21;77.79
59939;BME280;45801;51.810;19.444;2023-04-07T02:04:18;99036.89;;;3.24;77.22
59939;BME280;45801;51.810;19.444;2023-04-07T02:06:51;99033.61;;;3.29;77.04
59939;BME280;45801;51.810;19.444;2023-04-07T02:09:20;99032.80;;;3.37;76.56
59939;BME280;45801;51.810;19.444;2023-04-07T02:11:48;99032.05;;;3.47;76.31
59939;BME280;45801;51.810;19.444;2023-04-07T02:14:17;99033.48;;;3.47;76.42
59939;BME280;45801;51.810;19.444;2023-04-07T02:16:45;99031.46;;;3.48;76.40
59939;BME280;45801;51.810;19.444;2023-04-07T02:19:13;99033.58;;;3.48;76.57
59939;BME280;45801;51.810;19.444;2023-04-07T02:21:39;99029.64;;;3.49;76.77
59939;BME280;45801;51.810;19.444;2023-04-07T02:24:07;99025.99;;;3.42;76.93
59939;BME280;45801;51.810;19.444;2023-04-07T02:26:36;99032.77;;;3.42;76.41
59939;BME280;45801;51.810;19.444;2023-04-07T02:29:03;99031.49;;;3.46;76.42
59939;BME280;45801;51.810;19.444;2023-04-07T02:31:30;99031.36;;;3.47;77.05
59939;BME280;45801;51.810;19.444;2023-04-07T02:33:57;99031.04;;;3.45;76.79
59939;BME280;45801;51.810;19.444;2023-04-07T02:36:23;99030.02;;;3.45;76.80
59939;BME280;45801;51.810;19.444;2023-04-07T02:38:50;99030.17;;;3.49;76.51
59939;BME280;45801;51.810;19.444;2023-04-07T02:41:16;99028.41;;;3.54;76.79
59939;BME280;45801;51.810;19.444;2023-04-07T02:43:46;99028.21;;;3.54;76.97
59939;BME280;45801;51.810;19.444;2023-04-07T02:46:15;99029.30;;;3.55;76.68
59939;BME280;45801;51.810;19.444;2023-04-07T02:48:41;99026.79;;;3.56;76.88
59939;BME280;45801;51.810;19.444;2023-04-07T02:51:07;99027.90;;;3.60;76.35
59939;BME280;45801;51.810;19.444;2023-04-07T02:53:34;99025.63;;;3.57;76.89
59939;BME280;45801;51.810;19.444;2023-04-07T02:56:01;99022.71;;;3.55;76.97
59939;BME280;45801;51.810;19.444;2023-04-07T02:58:27;99019.25;;;3.47;77.53
59939;BME280;45801;51.810;19.444;2023-04-07T03:00:53;99020.01;;;3.43;77.59
59939;BME280;45801;51.810;19.444;2023-04-07T03:03:20;99023.95;;;3.45;76.87
59939;BME280;45801;51.810;19.444;2023-04-07T03:05:46;99025.07;;;3.48;76.72
59939;BME280;45801;51.810;19.444;2023-04-07T03:08:13;99028.67;;;3.56;76.46
59939;BME280;45801;51.810;19.444;2023-04-07T03:10:39;99027.62;;;3.58;76.93
59939;BME280;45801;51.810;19.444;2023-04-07T03:13:06;99032.60;;;3.63;76.83
59939;BME280;45801;51.810;19.444;2023-04-07T03:15:33;99033.96;;;3.65;76.95
59939;BME280;45801;51.810;19.444;2023-04-07T03:18:00;99032.41;;;3.62;77.00
59939;BME280;45801;51.810;19.444;2023-04-07T03:20:26;99030.80;;;3.62;76.79
59939;BME280;45801;51.810;19.444;2023-04-07T03:22:53;99028.54;;;3.61;76.94
59939;BME280;45801;51.810;19.444;2023-04-07T03:25:19;99023.42;;;3.57;77.12
59939;BME280;45801;51.810;19.444;2023-04-07T03:27:46;99025.21;;;3.61;76.56
59939;BME280;45801;51.810;19.444;2023-04-07T03:30:13;99024.85;;;3.61;77.23
59939;BME280;45801;51.810;19.444;2023-04-07T03:32:39;99022.16;;;3.54;77.56
59939;BME280;45801;51.810;19.444;2023-04-07T03:35:06;99021.50;;;3.49;77.80
59939;BME280;45801;51.810;19.444;2023-04-07T03:37:33;99023.27;;;3.52;77.43
59939;BME280;45801;51.810;19.444;2023-04-07T03:40:00;99024.48;;;3.58;77.46
59939;BME280;45801;51.810;19.444;2023-04-07T03:42:27;99022.36;;;3.65;77.04
59939;BME280;45801;51.810;19.444;2023-04-07T03:44:54;99020.78;;;3.70;76.96
59939;BME280;45801;51.810;19.444;2023-04-07T03:47:21;99018.44;;;3.71;77.31
59939;BME280;45801;51.810;19.444;2023-04-07T03:49:51;99018.20;;;3.73;77.07
59939;BME280;45801;51.810;19.444;2023-04-07T03:52:18;99018.54;;;3.75;77.18
59939;BME280;45801;51.810;19.444;2023-04-07T03:54:44;99020.06;;;3.77;77.13
59939;BME280;45801;51.810;19.444;2023-04-07T03:57:11;99014.95;;;3.81;76.64
59939;BME280;45801;51.810;19.444;2023-04-07T03:59:37;99015.88;;;3.79;77.22
59939;BME280;45801;51.810;19.444;2023-04-07T04:02:04;99016.39;;;3.82;76.50
59939;BME280;45801;51.810;19.444;2023-04-07T04:04:31;99014.78;;;3.86;76.80
59939;BME280;45801;51.810;19.444;2023-04-07T04:06:57;99011.15;;;3.84;77.10
59939;BME280;45801;51.810;19.444;2023-04-07T04:09:23;99009.38;;;3.88;76.64
59939;BME280;45801;51.810;19.444;2023-04-07T04:11:51;99010.06;;;3.91;76.55
59939;BME280;45801;51.810;19.444;2023-04-07T04:14:17;99007.51;;;3.89;77.10
59939;BME280;45801;51.810;19.444;2023-04-07T04:16:44;99004.92;;;3.84;77.29
59939;BME280;45801;51.810;19.444;2023-04-07T04:19:10;99009.93;;;3.76;77.81
59939;BME280;45801;51.810;19.444;2023-04-07T04:21:37;99012.08;;;3.77;77.62
59939;BME280;45801;51.810;19.444;2023-04-07T04:24:03;99011.09;;;3.78;77.65
59939;BME280;45801;51.810;19.444;2023-04-07T04:26:31;99013.23;;;3.81;77.30
59939;BME280;45801;51.810;19.444;2023-04-07T04:28:57;99015.09;;;3.88;76.94
59939;BME280;45801;51.810;19.444;2023-04-07T04:31:24;99014.84;;;3.93;76.97
59939;BME280;45801;51.810;19.444;2023-04-07T04:33:50;99012.87;;;3.92;77.73
59939;BME280;45801;51.810;19.444;2023-04-07T04:36:17;99012.27;;;3.87;77.65
59939;BME280;45801;51.810;19.444;2023-04-07T04:38:44;99012.48;;;3.86;77.69
59939;BME280;45801;51.810;19.444;2023-04-07T04:41:10;99006.58;;;3.80;78.26
59939;BME280;45801;51.810;19.444;2023-04-07T04:43:37;99007.67;;;3.81;77.86
59939;BME280;45801;51.810;19.444;2023-04-07T04:46:03;99007.40;;;3.85;77.77
59939;BME280;45801;51.810;19.444;2023-04-07T04:48:30;99009.23;;;3.89;77.76
59939;BME280;45801;51.810;19.444;2023-04-07T04:50:56;99010.62;;;3.92;77.83
59939;BME280;45801;51.810;19.444;2023-04-07T04:53:23;99013.17;;;3.94;77.88
59939;BME280;45801;51.810;19.444;2023-04-07T04:55:49;99009.72;;;3.96;77.65
59939;BME280;45801;51.810;19.444;2023-04-07T04:58:19;99010.83;;;4.00;77.69
59939;BME280;45801;51.810;19.444;2023-04-07T05:00:46;99008.47;;;4.01;77.70
59939;BME280;45801;51.810;19.444;2023-04-07T05:03:12;99015.31;;;3.97;77.89
59939;BME280;45801;51.810;19.444;2023-04-07T05:05:39;99017.36;;;3.99;77.76
59939;BME280;45801;51.810;19.444;2023-04-07T05:08:05;99016.00;;;4.02;77.68
59939;BME280;45801;51.810;19.444;2023-04-07T05:10:37;99016.52;;;4.04;77.86
59939;BME280;45801;51.810;19.444;2023-04-07T05:13:03;99016.85;;;4.02;77.99
59939;BME280;45801;51.810;19.444;2023-04-07T05:15:31;99022.85;;;4.01;78.16
59939;BME280;45801;51.810;19.444;2023-04-07T05:17:58;99022.17;;;4.01;77.91
59939;BME280;45801;51.810;19.444;2023-04-07T05:20:26;99024.90;;;3.96;78.45
59939;BME280;45801;51.810;19.444;2023-04-07T05:22:52;99025.45;;;3.99;77.75
59939;BME280;45801;51.810;19.444;2023-04-07T05:25:19;99030.38;;;4.02;77.64
59939;BME280;45801;51.810;19.444;2023-04-07T05:27:45;99035.04;;;3.97;78.61
59939;BME280;45801;51.810;19.444;2023-04-07T05:30:12;99032.48;;;3.95;78.72
59939;BME280;45801;51.810;19.444;2023-04-07T05:32:39;99027.52;;;3.96;78.64
59939;BME280;45801;51.810;19.444;2023-04-07T05:35:05;99029.48;;;3.99;78.21
59939;BME280;45801;51.810;19.444;2023-04-07T05:37:32;99031.42;;;4.05;78.36
59939;BME280;45801;51.810;19.444;2023-04-07T05:39:58;99030.13;;;4.09;78.21
59939;BME280;45801;51.810;19.444;2023-04-07T05:42:25;99027.23;;;4.15;78.04
59939;BME280;45801;51.810;19.444;2023-04-07T05:44:52;99028.86;;;4.19;78.18
59939;BME280;45801;51.810;19.444;2023-04-07T05:47:18;99027.30;;;4.19;78.43
59939;BME280;45801;51.810;19.444;2023-04-07T05:49:44;99026.92;;;4.24;78.24
59939;BME280;45801;51.810;19.444;2023-04-07T05:52:18;99029.34;;;4.29;77.80
59939;BME280;45801;51.810;19.444;2023-04-07T05:54:44;99023.35;;;4.38;77.22
59939;BME280;45801;51.810;19.444;2023-04-07T05:57:11;99021.04;;;4.46;77.33
59939;BME280;45801;51.810;19.444;2023-04-07T05:59:37;99020.27;;;4.50;77.31
59939;BME280;45801;51.810;19.444;2023-04-07T06:02:04;99017.35;;;4.51;77.67
59939;BME280;45801;51.810;19.444;2023-04-07T06:04:30;99016.59;;;4.52;77.50
59939;BME280;45801;51.810;19.444;2023-04-07T06:06:58;99018.42;;;4.54;77.59
59939;BME280;45801;51.810;19.444;2023-04-07T06:09:25;99016.63;;;4.53;77.31
59939;BME280;45801;51.810;19.444;2023-04-07T06:11:52;99017.92;;;4.48;77.90
59939;BME280;45801;51.810;19.444;2023-04-07T06:14:18;99019.40;;;4.50;77.41
59939;BME280;45801;51.810;19.444;2023-04-07T06:16:44;99021.06;;;4.54;77.47
59939;BME280;45801;51.810;19.444;2023-04-07T06:19:11;99022.42;;;4.54;78.48
59939;BME280;45801;51.810;19.444;2023-04-07T06:21:37;99022.92;;;4.54;78.15
59939;BME280;45801;51.810;19.444;2023-04-07T06:24:05;99023.89;;;4.58;77.80
59939;BME280;45801;51.810;19.444;2023-04-07T06:26:32;99023.48;;;4.57;78.14
59939;BME280;45801;51.810;19.444;2023-04-07T06:29:00;99021.63;;;4.58;77.80
59939;BME280;45801;51.810;19.444;2023-04-07T06:31:27;99021.80;;;4.60;78.14
59939;BME280;45801;51.810;19.444;2023-04-07T06:33:53;99015.49;;;4.59;78.38
59939;BME280;45801;51.810;19.444;2023-04-07T06:36:20;99017.66;;;4.61;78.36
59939;BME280;45801;51.810;19.444;2023-04-07T06:38:46;99018.56;;;4.67;78.04
59939;BME280;45801;51.810;19.444;2023-04-07T06:41:13;99015.73;;;4.77;77.59
59939;BME280;45801;51.810;19.444;2023-04-07T06:43:43;99014.93;;;4.84;77.71
59939;BME280;45801;51.810;19.444;2023-04-07T06:46:10;99015.14;;;4.87;77.72
59939;BME280;45801;51.810;19.444;2023-04-07T06:48:36;99013.35;;;4.89;77.80
59939;BME280;45801;51.810;19.444;2023-04-07T06:51:03;99013.69;;;4.98;77.41
59939;BME280;45801;51.810;19.444;2023-04-07T06:53:30;99017.39;;;5.01;77.42
59939;BME280;45801;51.810;19.444;2023-04-07T06:56:07;99010.56;;;5.06;77.56
59939;BME280;45801;51.810;19.444;2023-04-07T06:58:34;99010.48;;;5.10;77.60
59939;BME280;45801;51.810;19.444;2023-04-07T07:01:01;99016.57;;;5.10;77.55
59939;BME280;45801;51.810;19.444;2023-04-07T07:03:29;99016.34;;;5.15;77.29
59939;BME280;45801;51.810;19.444;2023-04-07T07:05:57;99016.08;;;5.17;77.39
59939;BME280;45801;51.810;19.444;2023-04-07T07:08:25;99014.77;;;5.12;78.30
59939;BME280;45801;51.810;19.444;2023-04-07T07:10:52;99016.52;;;5.09;78.28
59939;BME280;45801;51.810;19.444;2023-04-07T07:13:21;99016.23;;;5.11;78.77
59939;BME280;45801;51.810;19.444;2023-04-07T07:15:51;99017.72;;;5.09;78.97
59939;BME280;45801;51.810;19.444;2023-04-07T07:18:18;99018.54;;;5.08;78.78
59939;BME280;45801;51.810;19.444;2023-04-07T07:20:45;99019.04;;;5.11;78.67
59939;BME280;45801;51.810;19.444;2023-04-07T07:23:11;99018.39;;;5.15;78.46
59939;BME280;45801;51.810;19.444;2023-04-07T07:25:38;99018.11;;;5.24;77.68
59939;BME280;45801;51.810;19.444;2023-04-07T07:28:04;99018.16;;;5.34;77.62
59939;BME280;45801;51.810;19.444;2023-04-07T07:30:31;99018.98;;;5.42;77.11
59939;BME280;45801;51.810;19.444;2023-04-07T07:32:57;99020.91;;;5.48;77.24
59939;BME280;45801;51.810;19.444;2023-04-07T07:35:24;99018.72;;;5.46;77.41
59939;BME280;45801;51.810;19.444;2023-04-07T07:37:51;99020.03;;;5.45;77.38
59939;BME280;45801;51.810;19.444;2023-04-07T07:40:18;99021.45;;;5.42;77.74
59939;BME280;45801;51.810;19.444;2023-04-07T07:42:45;99024.19;;;5.48;77.52
59939;BME280;45801;51.810;19.444;2023-04-07T07:45:12;99026.33;;;5.54;77.27
59939;BME280;45801;51.810;19.444;2023-04-07T07:47:39;99027.74;;;5.61;77.02
59939;BME280;45801;51.810;19.444;2023-04-07T07:50:06;99027.95;;;5.61;77.37
59939;BME280;45801;51.810;19.444;2023-04-07T07:52:33;99027.77;;;5.61;77.36
59939;BME280;45801;51.810;19.444;2023-04-07T07:54:59;99031.92;;;5.64;77.62
59939;BME280;45801;51.810;19.444;2023-04-07T07:57:26;99031.84;;;5.65;77.74
59939;BME280;45801;51.810;19.444;2023-04-07T07:59:52;99030.47;;;5.65;78.43
59939;BME280;45801;51.810;19.444;2023-04-07T08:02:19;99031.04;;;5.60;79.42
59939;BME280;45801;51.810;19.444;2023-04-07T08:04:46;99031.92;;;5.64;78.35
59939;BME280;45801;51.810;19.444;2023-04-07T08:07:12;99029.69;;;5.73;77.74
59939;BME280;45801;51.810;19.444;2023-04-07T08:09:39;99029.65;;;5.78;78.24
59939;BME280;45801;51.810;19.444;2023-04-07T08:12:05;99029.27;;;5.80;78.57
59939;BME280;45801;51.810;19.444;2023-04-07T08:14:32;99028.59;;;5.84;78.61
59939;BME280;45801;51.810;19.444;2023-04-07T08:16:58;99031.52;;;5.81;79.06
59939;BME280;45801;51.810;19.444;2023-04-07T08:19:25;99028.92;;;5.80;78.87
59939;BME280;45801;51.810;19.444;2023-04-07T08:21:51;99029.58;;;5.74;79.32
59939;BME280;45801;51.810;19.444;2023-04-07T08:24:18;99033.52;;;5.70;79.81
59939;BME280;45801;51.810;19.444;2023-04-07T08:26:45;99031.80;;;5.71;79.69
59939;BME280;45801;51.810;19.444;2023-04-07T08:29:11;99034.50;;;5.72;79.30
59939;BME280;45801;51.810;19.444;2023-04-07T08:31:38;99030.95;;;5.68;80.50
59939;BME280;45801;51.810;19.444;2023-04-07T08:34:05;99031.30;;;5.65;80.43
59939;BME280;45801;51.810;19.444;2023-04-07T08:36:32;99029.33;;;5.67;79.65
59939;BME280;45801;51.810;19.444;2023-04-07T08:38:58;99028.16;;;5.74;79.37
59939;BME280;45801;51.810;19.444;2023-04-07T08:41:36;99026.51;;;5.75;79.92
59939;BME280;45801;51.810;19.444;2023-04-07T08:44:03;99027.23;;;5.73;79.86
59939;BME280;45801;51.810;19.444;2023-04-07T08:46:34;99030.99;;;5.75;79.66
59939;BME280;45801;51.810;19.444;2023-04-07T08:49:03;99033.46;;;5.75;79.64
59939;BME280;45801;51.810;19.444;2023-04-07T08:51:33;99027.05;;;5.76;79.91
59939;BME280;45801;51.810;19.444;2023-04-07T08:54:11;99024.20;;;5.80;79.67
59939;BME280;45801;51.810;19.444;2023-04-07T08:56:38;99023.08;;;5.82;80.32
59939;BME280;45801;51.810;19.444;2023-04-07T08:59:08;99023.21;;;5.84;80.58
59939;BME280;45801;51.810;19.444;2023-04-07T09:01:36;99021.14;;;5.85;80.40
59939;BME280;45801;51.810;19.444;2023-04-07T09:04:03;99022.07;;;5.92;79.51
59939;BME280;45801;51.810;19.444;2023-04-07T09:06:30;99021.98;;;6.02;78.88
59939;BME280;45801;51.810;19.444;2023-04-07T09:08:57;99022.81;;;6.10;78.51
59939;BME280;45801;51.810;19.444;2023-04-07T09:11:25;99021.16;;;6.14;78.64
59939;BME280;45801;51.810;19.444;2023-04-07T09:13:53;99020.70;;;6.12;78.90
59939;BME280;45801;51.810;19.444;2023-04-07T09:16:21;99017.14;;;6.14;78.97
59939;BME280;45801;51.810;19.444;2023-04-07T09:18:49;99016.60;;;6.14;79.02
59939;BME280;45801;51.810;19.444;2023-04-07T09:21:15;99016.55;;;6.16;78.86
59939;BME280;45801;51.810;19.444;2023-04-07T09:23:42;99010.27;;;6.16;79.41
59939;BME280;45801;51.810;19.444;2023-04-07T09:29:00;99003.34;;;6.16;79.82
59939;BME280;45801;51.810;19.444;2023-04-07T09:31:48;99009.07;;;6.13;79.96
59939;BME280;45801;51.810;19.444;2023-04-07T09:34:30;99009.08;;;6.19;79.06
59939;BME280;45801;51.810;19.444;2023-04-07T09:36:57;99010.71;;;6.20;79.72
59939;BME280;45801;51.810;19.444;2023-04-07T09:39:24;99010.66;;;6.22;79.41
59939;BME280;45801;51.810;19.444;2023-04-07T09:41:52;99010.93;;;6.24;80.00
59939;BME280;45801;51.810;19.444;2023-04-07T09:44:20;99007.63;;;6.21;80.32
59939;BME280;45801;51.810;19.444;2023-04-07T09:46:54;99006.33;;;6.26;79.45
59939;BME280;45801;51.810;19.444;2023-04-07T09:49:23;99004.15;;;6.27;79.87
59939;BME280;45801;51.810;19.444;2023-04-07T09:51:54;99005.79;;;6.35;78.98
59939;BME280;45801;51.810;19.444;2023-04-07T09:54:37;99004.57;;;6.50;78.94
59939;BME280;45801;51.810;19.444;2023-04-07T09:57:06;99004.85;;;6.55;78.93
59939;BME280;45801;51.810;19.444;2023-04-07T09:59:35;99001.66;;;6.51;79.19
59939;BME280;45801;51.810;19.444;2023-04-07T10:02:03;98999.96;;;6.49;79.12
59939;BME280;45801;51.810;19.444;2023-04-07T10:04:30;99001.14;;;6.51;78.60
59939;BME280;45801;51.810;19.444;2023-04-07T10:06:58;99001.48;;;6.54;78.38
59939;BME280;45801;51.810;19.444;2023-04-07T10:09:27;99009.06;;;6.60;78.09
59939;BME280;45801;51.810;19.444;2023-04-07T10:11:55;99019.81;;;6.65;78.12
59939;BME280;45801;51.810;19.444;2023-04-07T10:14:27;99005.02;;;6.65;78.52
59939;BME280;45801;51.810;19.444;2023-04-07T10:16:55;98999.84;;;6.56;79.47
59939;BME280;45801;51.810;19.444;2023-04-07T10:19:23;98998.67;;;6.57;79.17
59939;BME280;45801;51.810;19.444;2023-04-07T10:21:52;98991.80;;;6.56;79.94
59939;BME280;45801;51.810;19.444;2023-04-07T10:24:32;98988.67;;;6.49;79.91
59939;BME280;45801;51.810;19.444;2023-04-07T10:27:06;98992.23;;;6.44;80.42
59939;BME280;45801;51.810;19.444;2023-04-07T10:29:40;98994.35;;;6.42;80.36
59939;BME280;45801;51.810;19.444;2023-04-07T10:32:08;98996.35;;;6.46;79.18
59939;BME280;45801;51.810;19.444;2023-04-07T10:34:54;98997.48;;;6.54;78.90
59939;BME280;45801;51.810;19.444;2023-04-07T10:37:24;98999.87;;;6.57;79.20
59939;BME280;45801;51.810;19.444;2023-04-07T10:42:46;99008.09;;;6.70;78.61
59939;BME280;45801;51.810;19.444;2023-04-07T10:45:13;99009.98;;;6.79;78.32
59939;BME280;45801;51.810;19.444;2023-04-07T10:48:09;99002.84;;;6.85;78.07
59939;BME280;45801;51.810;19.444;2023-04-07T10:50:37;99002.38;;;6.80;79.28
59939;BME280;45801;51.810;19.444;2023-04-07T10:53:05;98995.85;;;6.79;79.20
59939;BME280;45801;51.810;19.444;2023-04-07T10:55:37;99003.23;;;6.80;78.93
59939;BME280;45801;51.810;19.444;2023-04-07T10:58:27;99004.42;;;6.83;78.72
59939;BME280;45801;51.810;19.444;2023-04-07T11:03:51;99003.20;;;6.86;78.46
59939;BME280;45801;51.810;19.444;2023-04-07T11:06:18;98999.94;;;6.87;78.66
59939;BME280;45801;51.810;19.444;2023-04-07T11:08:47;99002.36;;;6.90;78.44
59939;BME280;45801;51.810;19.444;2023-04-07T11:11:19;99004.01;;;6.95;78.31
59939;BME280;45801;51.810;19.444;2023-04-07T11:13:49;99001.46;;;6.96;78.41
59939;BME280;45801;51.810;19.444;2023-04-07T11:16:18;99000.94;;;6.96;78.98
59939;BME280;45801;51.810;19.444;2023-04-07T11:18:45;99001.35;;;6.97;79.13
59939;BME280;45801;51.810;19.444;2023-04-07T11:21:17;99001.09;;;6.99;78.98
59939;BME280;45801;51.810;19.444;2023-04-07T11:23:45;99000.34;;;6.98;79.69
59939;BME280;45801;51.810;19.444;2023-04-07T11:26:13;98999.56;;;6.99;79.18
59939;BME280;45801;51.810;19.444;2023-04-07T11:28:51;99000.77;;;7.06;78.86
59939;BME280;45801;51.810;19.444;2023-04-07T11:31:25;98997.80;;;7.12;78.36
59939;BME280;45801;51.810;19.444;2023-04-07T11:33:54;98998.77;;;7.18;78.84
59939;BME280;45801;51.810;19.444;2023-04-07T11:36:32;98999.95;;;7.20;79.01
59939;BME280;45801;51.810;19.444;2023-04-07T11:39:00;99002.04;;;7.23;78.84
59939;BME280;45801;51.810;19.444;2023-04-07T11:41:29;99003.21;;;7.29;78.32
59939;BME280;45801;51.810;19.444;2023-04-07T11:44:04;99001.70;;;7.33;78.14
59939;BME280;45801;51.810;19.444;2023-04-07T11:46:31;99003.72;;;7.35;78.39
59939;BME280;45801;51.810;19.444;2023-04-07T11:49:09;99004.80;;;7.36;78.44
59939;BME280;45801;51.810;19.444;2023-04-07T11:51:36;99003.92;;;7.39;78.76
59939;BME280;45801;51.810;19.444;2023-04-07T11:54:02;99005.33;;;7.39;79.27
59939;BME280;45801;51.810;19.444;2023-04-07T11:56:29;99006.35;;;7.39;79.35
59939;BME280;45801;51.810;19.444;2023-04-07T11:59:06;99005.79;;;7.38;79.88
59939;BME280;45801;51.810;19.444;2023-04-07T12:01:39;99005.09;;;7.38;79.83
59939;BME280;45801;51.810;19.444;2023-04-07T12:04:12;99002.44;;;7.41;79.59
59939;BME280;45801;51.810;19.444;2023-04-07T12:06:40;99002.76;;;7.44;79.17
59939;BME280;45801;51.810;19.444;2023-04-07T12:09:23;99001.75;;;7.48;78.97
59939;BME280;45801;51.810;19.444;2023-04-07T12:11:52;99001.68;;;7.50;79.61
59939;BME280;45801;51.810;19.444;2023-04-07T12:14:19;98995.66;;;7.55;79.46
59939;BME280;45801;51.810;19.444;2023-04-07T12:16:45;98997.45;;;7.63;78.79
59939;BME280;45801;51.810;19.444;2023-04-07T12:19:12;99002.88;;;7.70;78.34
59939;BME280;45801;51.810;19.444;2023-04-07T12:21:39;99001.02;;;7.74;78.36
59939;BME280;45801;51.810;19.444;2023-04-07T12:24:06;99000.96;;;7.77;78.56
59939;BME280;45801;51.810;19.444;2023-04-07T12:26:32;99002.83;;;7.79;78.54
59939;BME280;45801;51.810;19.444;2023-04-07T12:28:59;99002.84;;;7.80;78.60
59939;BME280;45801;51.810;19.444;2023-04-07T12:31:30;99005.91;;;7.78;78.75
59939;BME280;45801;51.810;19.444;2023-04-07T12:34:00;99003.27;;;7.77;78.71
59939;BME280;45801;51.810;19.444;2023-04-07T12:36:26;99005.14;;;7.77;79.11
59939;BME280;45801;51.810;19.444;2023-04-07T12:38:53;99007.36;;;7.72;79.95
59939;BME280;45801;51.810;19.444;2023-04-07T12:41:20;99005.38;;;7.74;79.27
59939;BME280;45801;51.810;19.444;2023-04-07T12:43:47;99006.21;;;7.77;78.99
59939;BME280;45801;51.810;19.444;2023-04-07T12:46:20;99007.56;;;7.76;80.19
59939;BME280;45801;51.810;19.444;2023-04-07T12:48:50;99006.74;;;7.77;80.18
59939;BME280;45801;51.810;19.444;2023-04-07T12:51:16;99003.70;;;7.79;79.63
59939;BME280;45801;51.810;19.444;2023-04-07T12:53:43;99000.61;;;7.84;79.29
59939;BME280;45801;51.810;19.444;2023-04-07T12:56:09;99001.79;;;7.90;79.47
59939;BME280;45801;51.810;19.444;2023-04-07T12:58:39;99002.58;;;7.95;79.22
59939;BME280;45801;51.810;19.444;2023-04-07T13:01:06;99000.96;;;8.01;78.80
59939;BME280;45801;51.810;19.444;2023-04-07T13:03:33;99001.06;;;8.03;79.15
59939;BME280;45801;51.810;19.444;2023-04-07T13:05:59;99003.73;;;8.04;79.43
59939;BME280;45801;51.810;19.444;2023-04-07T13:08:27;98998.13;;;8.04;79.40
59939;BME280;45801;51.810;19.444;2023-04-07T13:10:55;99000.21;;;8.07;79.10
59939;BME280;45801;51.810;19.444;2023-04-07T13:13:22;98996.73;;;8.11;79.11
59939;BME280;45801;51.810;19.444;2023-04-07T13:15:49;98996.92;;;8.15;79.59
59939;BME280;45801;51.810;19.444;2023-04-07T13:18:16;98996.34;;;8.17;79.78